Aérodrome :
LOGIN :

S'inscrire | Disclaimer

   EN    FR    IT 

 










Légende :    VFR   VFR Marginal   IFR   IFR Intensif   IFR Très Intensif
Visi : 
Plafond : 
>= 8 km
>= 3000ft
5 à 8 km
1000 à 3000 ft
1500m à 5 km
500 à 1000 ft
800 à 1500m
200 à 500 ft
< 800m
< 200 ft
Symboles :   Orages  Brouillard  Fortes neiges  Fortes précipitations  Vent > 20 kt
SIGMETs :   Divers  Orages  Givrage  Turbulence  Onde Orograph.  Cendres Volcan.






- Altitude de l'aérodrome : 1959 ft
- Code IATA : HOQ


EDQM - Hof Plauen

DERNIER METAR :
  • 081120Z 04005KT 350V060 7000 SCT007 BKN009 OVC012 M00/M02 Q1020

METARs EXPIRÉS :
  • 081050Z 36004KT 320V070 7000 BKN006 OVC009 M00/M02 Q1020
  • 081020Z 35005KT 300V030 5000 -SN BKN006 OVC008 M01/M02 Q1020
  • 080950Z 35005KT 300V040 3900 -SN BKN006 OVC009 M01/M02 Q1019
  • 080920Z 35005KT 310V030 3800 -SN BKN007 OVC013 M01/M02 Q1019
  • 080850Z 34005KT 290V010 4000 -SN OVC007 M01/M02 Q1019

TAF TAF EDQM
Valide du 08 à 12h jusqu'au 08 à 21h UTC


081100Z 0812/0821 02004KT 9000 SCT007 BKN015
TEMPO 0812/0816 BKN007



MET'MAP, la Météo Aéronautique d'un coup d'oeil ! - Copyright ORBIFLY Décembre 2007 - Disclaimer

ORBIFLY MET'MAP TEAM :

Programmation & Développement : Alexandra Zaïnal
Sur une idée originale de : Baudouin d'Aumeries
Assistance à la programmation : Marc-Olivier Méhu
Soutien technique & logistique : Manuel Goepfert

Contact : metmap@orbifly.com




SOURCES & CREDITS :

   NOAA